Time;durP1;ratioP1;P1;durP2;ratioP2;P2;SDS_P1;SDS_P2;PMS_P1;PMS_P2;Temp;Humidity;BMP_temperature;BMP_pressure;BME280_temperature;BME280_humidity;BME280_pressure;Samples;Min_cycle;Max_cycle;Signal;HPM_P1;HPM_P2
2023/12/23 00:00:58;;;;;;;;;;;;;;;3.18;78.66;97758.09;4373803;32;35364;-89
2023/12/23 00:03:31;;;;;;;;;;;;;;;3.18;78.69;97742.72;4356002;32;33888;-89
2023/12/23 00:06:04;;;;;;;;;;;;;;;3.28;77.64;97751.13;4358775;32;34437;-92
2023/12/23 00:08:34;;;;;;;;;;;;;;;3.43;77.15;97762.84;4364582;32;34910;-88
2023/12/23 00:11:06;;;;;;;;;;;;;;;3.28;77.56;97760.53;4358536;32;33284;-90
2023/12/23 00:13:36;;;;;;;;;;;;;;;3.47;76.84;97766.22;4357623;32;31046;-89
2023/12/23 00:16:05;;;;;;;;;;;;;;;3.29;77.19;97757.12;4358527;32;33490;-92
2023/12/23 00:18:42;;;;;;;;;;;;;;;3.33;77.27;97757.03;4359363;32;33200;-89
2023/12/23 00:21:11;;;;;;;;;;;;;;;3.39;77.19;97750.97;4363415;32;34204;-89
2023/12/23 00:23:41;;;;;;;;;;;;;;;3.41;76.69;97724.44;4360527;32;33434;-90
2023/12/23 00:26:09;;;;;;;;;;;;;;;3.46;76.62;97720.97;4353422;32;34580;-89
2023/12/23 00:28:40;;;;;;;;;;;;;;;3.33;76.89;97723.72;4357735;32;33844;-91
2023/12/23 00:31:11;;;;;;;;;;;;;;;3.54;76.54;97749.88;4353887;32;32835;-89
2023/12/23 00:33:49;;;;;;;;;;;;;;;3.54;76.21;97742.19;4358621;32;32925;-89
2023/12/23 00:36:18;;;;;;;;;;;;;;;3.60;76.58;97724.13;4355861;32;33639;-89
2023/12/23 00:38:51;;;;;;;;;;;;;;;3.59;75.86;97720.72;4355534;32;33489;-89
2023/12/23 00:41:19;;;;;;;;;;;;;;;3.76;75.51;97715.31;4357898;32;33286;-90
2023/12/23 00:43:55;;;;;;;;;;;;;;;3.85;75.41;97692.06;4360984;32;32769;-89
2023/12/23 00:46:31;;;;;;;;;;;;;;;3.89;75.70;97682.59;4355307;32;34358;-89
2023/12/23 00:49:01;;;;;;;;;;;;;;;4.01;74.54;97697.78;4355572;32;33888;-90
2023/12/23 00:51:31;;;;;;;;;;;;;;;3.99;74.56;97709.78;4360957;32;34342;-91
2023/12/23 00:54:00;;;;;;;;;;;;;;;3.98;74.77;97717.50;4355376;32;32567;-89
2023/12/23 00:56:28;;;;;;;;;;;;;;;3.90;74.82;97706.53;4360562;32;33411;-92
2023/12/23 00:59:01;;;;;;;;;;;;;;;3.72;75.45;97711.12;4355659;32;34169;-91
2023/12/23 01:01:29;;;;;;;;;;;;;;;3.94;74.84;97721.84;4360430;32;35154;-90
2023/12/23 01:04:00;;;;;;;;;;;;;;;3.80;75.41;97716.94;4370743;32;32734;-89
2023/12/23 01:06:31;;;;;;;;;;;;;;;4.05;74.59;97706.22;4364139;32;33138;-90
2023/12/23 01:09:00;;;;;;;;;;;;;;;3.96;74.53;97707.28;4360961;32;33513;-89
2023/12/23 01:11:29;;;;;;;;;;;;;;;4.21;73.56;97741.00;4371158;32;33337;-89
2023/12/23 01:14:01;;;;;;;;;;;;;;;4.01;73.89;97763.59;4369473;32;34336;-89
2023/12/23 01:16:29;;;;;;;;;;;;;;;4.17;73.27;97780.41;4366595;32;34779;-91
2023/12/23 01:19:11;;;;;;;;;;;;;;;4.21;72.48;97771.81;4376311;32;34593;-89
2023/12/23 01:21:43;;;;;;;;;;;;;;;3.84;74.20;97789.53;4362661;32;34930;-89
2023/12/23 01:24:12;;;;;;;;;;;;;;;4.07;73.16;97771.19;4355323;32;32821;-89
2023/12/23 01:26:40;;;;;;;;;;;;;;;3.80;74.02;97770.81;4346428;32;34679;-92
2023/12/23 01:29:08;;;;;;;;;;;;;;;3.56;75.17;97786.59;4368433;32;33608;-89
2023/12/23 01:31:37;;;;;;;;;;;;;;;3.56;75.32;97789.16;4367494;32;34148;-89
2023/12/23 01:34:13;;;;;;;;;;;;;;;3.69;74.73;97792.38;4349357;32;34406;-89
2023/12/23 01:36:43;;;;;;;;;;;;;;;3.42;75.52;97791.94;4349391;32;33848;-88
2023/12/23 01:39:11;;;;;;;;;;;;;;;3.44;76.10;97790.19;4363470;32;34693;-90
2023/12/23 01:41:46;;;;;;;;;;;;;;;3.59;75.27;97787.38;4371731;32;34848;-89
2023/12/23 01:44:15;;;;;;;;;;;;;;;3.70;75.30;97791.53;4372158;32;33104;-90
2023/12/23 01:46:46;;;;;;;;;;;;;;;3.56;76.10;97804.56;4347152;32;32789;-92
2023/12/23 01:49:16;;;;;;;;;;;;;;;3.85;74.51;97807.50;4340814;32;34976;-90
2023/12/23 01:51:45;;;;;;;;;;;;;;;3.67;75.26;97783.84;4349544;32;33655;-90
2023/12/23 01:54:14;;;;;;;;;;;;;;;3.49;76.18;97777.31;4367804;32;32342;-90
2023/12/23 01:56:43;;;;;;;;;;;;;;;3.55;75.43;97761.81;4355520;32;33486;-89
2023/12/23 01:59:15;;;;;;;;;;;;;;;3.94;74.33;97755.19;4357867;32;34041;-90
2023/12/23 02:01:48;;;;;;;;;;;;;;;3.72;75.08;97757.28;4359152;32;34121;-90
2023/12/23 02:04:19;;;;;;;;;;;;;;;3.68;75.37;97780.44;4371680;32;33332;-89
2023/12/23 02:06:48;;;;;;;;;;;;;;;3.57;75.74;97775.47;4363466;32;34394;-89
2023/12/23 02:09:20;;;;;;;;;;;;;;;3.47;76.38;97785.00;4368984;32;34269;-90
2023/12/23 02:11:54;;;;;;;;;;;;;;;3.49;76.17;97796.09;4352337;32;34146;-93
2023/12/23 02:14:26;;;;;;;;;;;;;;;3.45;76.42;97804.69;4350400;32;33437;-90
2023/12/23 02:16:57;;;;;;;;;;;;;;;3.53;76.31;97814.88;4360969;32;33461;-89
2023/12/23 02:19:27;;;;;;;;;;;;;;;3.56;76.16;97825.06;4354208;32;33990;-88
2023/12/23 02:21:57;;;;;;;;;;;;;;;3.45;76.03;97847.44;4359642;32;34817;-88
2023/12/23 02:24:26;;;;;;;;;;;;;;;3.10;77.55;97862.41;4355556;32;33310;-87
2023/12/23 02:26:57;;;;;;;;;;;;;;;2.89;78.71;97852.44;4361557;32;33749;-87
2023/12/23 02:29:25;;;;;;;;;;;;;;;3.03;78.77;97857.41;4355661;32;34699;-87
2023/12/23 02:32:00;;;;;;;;;;;;;;;2.89;78.96;97844.75;4358814;32;33287;-87
2023/12/23 02:34:29;;;;;;;;;;;;;;;3.02;78.60;97850.56;4355674;32;33270;-87
2023/12/23 02:37:02;;;;;;;;;;;;;;;3.03;78.34;97859.97;4355440;32;35119;-87
2023/12/23 02:39:30;;;;;;;;;;;;;;;3.39;77.34;97856.06;4361001;32;34971;-87
2023/12/23 02:42:02;;;;;;;;;;;;;;;3.21;77.87;97846.91;4350546;32;34049;-88
2023/12/23 02:44:49;;;;;;;;;;;;;;;3.06;78.68;97847.94;4342038;32;34567;-87
2023/12/23 02:47:18;;;;;;;;;;;;;;;2.92;79.49;97837.91;4355528;32;34402;-85
2023/12/23 02:49:54;;;;;;;;;;;;;;;2.89;79.46;97832.78;4355925;32;34798;-86
2023/12/23 02:52:28;;;;;;;;;;;;;;;3.05;78.35;97853.09;4361147;32;33310;-86
2023/12/23 02:54:56;;;;;;;;;;;;;;;2.83;79.76;97860.19;4355541;32;33595;-85
2023/12/23 02:57:26;;;;;;;;;;;;;;;2.89;80.06;97867.81;4355451;32;33844;-85
2023/12/23 02:59:57;;;;;;;;;;;;;;;2.90;80.02;97865.25;4355445;32;34021;-85
2023/12/23 03:02:33;;;;;;;;;;;;;;;2.75;80.81;97870.50;4369460;32;34483;-85
2023/12/23 03:05:01;;;;;;;;;;;;;;;2.82;80.69;97871.31;4376032;32;32998;-86
2023/12/23 03:07:31;;;;;;;;;;;;;;;2.83;80.56;97871.28;4370764;32;34383;-87
2023/12/23 03:09:59;;;;;;;;;;;;;;;2.76;80.74;97864.53;4371252;32;34591;-86
2023/12/23 03:12:29;;;;;;;;;;;;;;;2.89;80.37;97872.94;4373700;32;34171;-88
2023/12/23 03:14:59;;;;;;;;;;;;;;;2.63;81.56;97886.84;4375689;32;32680;-87
2023/12/23 03:17:30;;;;;;;;;;;;;;;2.82;80.91;97873.87;4370370;32;34925;-88
2023/12/23 03:20:00;;;;;;;;;;;;;;;2.81;80.80;97867.91;4364439;32;33971;-87
2023/12/23 03:22:32;;;;;;;;;;;;;;;2.87;80.49;97872.94;4367562;32;33791;-87
2023/12/23 03:25:05;;;;;;;;;;;;;;;3.10;79.60;97876.94;4375608;32;34384;-88
2023/12/23 03:27:34;;;;;;;;;;;;;;;3.03;80.23;97891.53;4362073;32;33651;-88
2023/12/23 03:30:05;;;;;;;;;;;;;;;3.09;79.40;97911.09;4380080;32;34588;-88
2023/12/23 03:32:40;;;;;;;;;;;;;;;3.04;79.82;97921.41;4388528;32;34373;-88
2023/12/23 03:35:09;;;;;;;;;;;;;;;2.99;79.78;97956.47;4385066;32;33775;-88
2023/12/23 03:37:41;;;;;;;;;;;;;;;3.08;79.92;97965.78;4390554;32;34532;-88
2023/12/23 03:40:11;;;;;;;;;;;;;;;3.01;80.30;97961.59;4384884;32;34040;-87
2023/12/23 03:42:53;;;;;;;;;;;;;;;3.09;79.23;97954.66;4370871;32;33754;-88
2023/12/23 03:45:25;;;;;;;;;;;;;;;3.10;79.46;97953.81;4370007;32;32856;-87
2023/12/23 03:47:53;;;;;;;;;;;;;;;3.07;79.21;97923.97;4369835;32;34847;-87
2023/12/23 03:50:27;;;;;;;;;;;;;;;3.26;78.87;97922.00;4375550;32;34382;-87
2023/12/23 03:52:55;;;;;;;;;;;;;;;3.06;79.71;97911.16;4370548;32;34439;-88
2023/12/23 03:55:32;;;;;;;;;;;;;;;3.12;79.53;97899.13;4369630;32;33362;-86
2023/12/23 03:58:00;;;;;;;;;;;;;;;3.05;80.04;97901.78;4369684;32;34454;-87
2023/12/23 04:00:36;;;;;;;;;;;;;;;3.22;79.06;97912.66;4373837;32;34675;-87
2023/12/23 04:03:10;;;;;;;;;;;;;;;3.27;78.99;97913.47;4375117;32;34930;-87
2023/12/23 04:05:39;;;;;;;;;;;;;;;3.02;80.06;97909.47;4369259;32;34288;-87
2023/12/23 04:08:08;;;;;;;;;;;;;;;3.28;78.96;97916.88;4369476;32;33990;-87
2023/12/23 04:10:41;;;;;;;;;;;;;;;3.01;79.86;97907.81;4372337;32;33769;-87
2023/12/23 04:13:10;;;;;;;;;;;;;;;3.23;78.99;97901.53;4375914;32;34794;-86
2023/12/23 04:15:40;;;;;;;;;;;;;;;3.28;78.12;97904.87;4375288;32;33061;-86
2023/12/23 04:18:09;;;;;;;;;;;;;;;3.16;79.18;97881.97;4371690;32;34793;-87
2023/12/23 04:20:40;;;;;;;;;;;;;;;3.06;79.21;97886.38;4371804;32;34215;-87
2023/12/23 04:23:11;;;;;;;;;;;;;;;3.20;79.03;97899.03;4371637;32;35324;-88
2023/12/23 04:25:45;;;;;;;;;;;;;;;3.13;79.53;97898.25;4376565;32;32978;-88
2023/12/23 04:28:24;;;;;;;;;;;;;;;2.99;80.01;97900.97;4371098;32;34119;-87
2023/12/23 04:30:59;;;;;;;;;;;;;;;2.99;79.80;97900.97;4370819;32;34609;-87
2023/12/23 04:33:28;;;;;;;;;;;;;;;3.09;79.40;97908.53;4372202;32;33676;-88
2023/12/23 04:36:03;;;;;;;;;;;;;;;3.15;79.45;97898.25;4370383;32;33521;-88
2023/12/23 04:38:32;;;;;;;;;;;;;;;2.98;80.16;97894.16;4377011;32;34436;-87
2023/12/23 04:41:02;;;;;;;;;;;;;;;3.06;80.59;97895.78;4370883;32;33823;-86
2023/12/23 04:43:31;;;;;;;;;;;;;;;3.08;79.50;97888.94;4366051;32;33351;-88
2023/12/23 04:46:08;;;;;;;;;;;;;;;3.19;79.18;97890.50;4369926;32;33682;-87
2023/12/23 04:48:56;;;;;;;;;;;;;;;3.12;80.14;97893.16;4375337;32;34512;-88
2023/12/23 04:51:25;;;;;;;;;;;;;;;2.99;80.16;97900.13;4376073;32;33772;-88
2023/12/23 04:53:54;;;;;;;;;;;;;;;3.24;79.60;97916.06;4373318;32;34837;-88
2023/12/23 04:56:24;;;;;;;;;;;;;;;3.40;78.25;97917.53;4370067;32;34135;-88
2023/12/23 04:59:00;;;;;;;;;;;;;;;3.13;79.04;97930.72;4371684;32;33772;-89
2023/12/23 05:01:29;;;;;;;;;;;;;;;3.10;79.60;97941.00;4373202;32;34340;-88
2023/12/23 05:03:58;;;;;;;;;;;;;;;3.30;79.12;97951.00;4376290;32;33461;-88
2023/12/23 05:06:26;;;;;;;;;;;;;;;3.50;77.88;97940.50;4370741;32;33901;-89
2023/12/23 05:08:57;;;;;;;;;;;;;;;3.25;78.93;97950.22;4371129;32;36299;-88
2023/12/23 05:11:27;;;;;;;;;;;;;;;3.16;78.81;97954.56;4372371;32;34131;-88
2023/12/23 05:13:58;;;;;;;;;;;;;;;2.96;80.06;97961.62;4376529;32;33479;-90
2023/12/23 05:16:26;;;;;;;;;;;;;;;2.78;80.87;97978.91;4370455;32;33294;-89
2023/12/23 05:19:01;;;;;;;;;;;;;;;2.89;80.23;97989.03;4370516;32;34218;-88
2023/12/23 05:21:36;;;;;;;;;;;;;;;2.47;82.39;98000.50;4370254;32;34274;-88
2023/12/23 05:24:05;;;;;;;;;;;;;;;2.49;82.51;97999.62;4370486;32;33878;-88
2023/12/23 05:26:42;;;;;;;;;;;;;;;2.52;82.49;98001.31;4376947;32;32805;-88
2023/12/23 05:29:11;;;;;;;;;;;;;;;2.59;82.51;98020.88;4371243;32;34241;-88
2023/12/23 05:31:46;;;;;;;;;;;;;;;2.68;81.94;98027.63;4374703;32;34023;-88
2023/12/23 05:34:16;;;;;;;;;;;;;;;2.60;82.22;98043.06;4371063;32;34829;-88
2023/12/23 05:36:48;;;;;;;;;;;;;;;2.84;81.76;98036.88;4374262;32;33309;-89
2023/12/23 05:39:23;;;;;;;;;;;;;;;2.86;81.59;98047.13;4375684;32;33282;-88
2023/12/23 05:41:53;;;;;;;;;;;;;;;2.97;80.57;98064.09;4372377;32;33919;-89
2023/12/23 05:44:25;;;;;;;;;;;;;;;2.67;81.65;98060.06;4373457;32;34484;-89
2023/12/23 05:46:53;;;;;;;;;;;;;;;2.59;81.45;98079.78;4371497;32;33380;-89
2023/12/23 05:49:25;;;;;;;;;;;;;;;2.37;82.17;98094.41;4375979;32;33349;-89
2023/12/23 05:51:53;;;;;;;;;;;;;;;2.41;82.37;98090.13;4370965;32;33628;-89
2023/12/23 05:54:22;;;;;;;;;;;;;;;2.24;82.34;98093.63;4368363;32;34166;-88
2023/12/23 05:56:52;;;;;;;;;;;;;;;2.29;82.69;98117.47;4370562;32;32911;-90
2023/12/23 05:59:21;;;;;;;;;;;;;;;2.29;82.04;98112.34;4371628;32;33061;-90
2023/12/23 06:01:56;;;;;;;;;;;;;;;2.31;82.18;98115.75;4357450;32;32411;-90
2023/12/23 06:04:30;;;;;;;;;;;;;;;2.19;82.16;98128.63;4371432;32;34474;-90
2023/12/23 06:06:59;;;;;;;;;;;;;;;2.39;81.48;98119.97;4370703;32;33860;-89
2023/12/23 06:09:33;;;;;;;;;;;;;;;2.22;82.27;98148.22;4370579;32;33166;-89
2023/12/23 06:12:03;;;;;;;;;;;;;;;2.05;83.42;98120.16;4376087;32;33569;-89
2023/12/23 06:14:36;;;;;;;;;;;;;;;2.04;83.37;98147.44;4371866;32;33883;-90
2023/12/23 06:17:04;;;;;;;;;;;;;;;1.93;84.60;98156.84;4369657;32;32838;-88
2023/12/23 06:19:33;;;;;;;;;;;;;;;2.02;83.90;98130.41;4371094;32;34720;-88
2023/12/23 06:22:02;;;;;;;;;;;;;;;2.25;83.55;98140.56;4370178;32;34369;-88
2023/12/23 06:24:30;;;;;;;;;;;;;;;2.27;83.59;98139.69;4375781;32;34296;-87
2023/12/23 06:27:05;;;;;;;;;;;;;;;2.26;83.07;98153.31;4370780;32;33752;-86
2023/12/23 06:29:39;;;;;;;;;;;;;;;2.41;83.01;98148.97;4370517;32;33553;-86
2023/12/23 06:32:08;;;;;;;;;;;;;;;2.30;83.91;98146.50;4377324;32;34147;-86
2023/12/23 06:34:37;;;;;;;;;;;;;;;2.26;84.16;98178.06;4374732;32;33577;-85
2023/12/23 06:37:05;;;;;;;;;;;;;;;2.41;82.98;98159.22;4369731;32;31542;-86
2023/12/23 06:39:37;;;;;;;;;;;;;;;2.58;82.12;98142.03;4370467;32;34014;-86
2023/12/23 06:42:09;;;;;;;;;;;;;;;2.59;82.21;98145.47;4373686;32;33581;-85
2023/12/23 06:44:38;;;;;;;;;;;;;;;2.48;82.92;98154.06;4370312;32;33600;-86
2023/12/23 06:47:09;;;;;;;;;;;;;;;2.58;82.65;98184.72;4375760;32;33194;-86
2023/12/23 06:49:44;;;;;;;;;;;;;;;2.44;82.80;98185.66;4370188;32;34721;-88
2023/12/23 06:52:13;;;;;;;;;;;;;;;2.72;82.25;98182.94;4355814;32;32939;-87
2023/12/23 06:54:42;;;;;;;;;;;;;;;2.68;82.58;98184.69;4369870;32;34085;-88
2023/12/23 06:57:12;;;;;;;;;;;;;;;2.48;82.62;98171.13;4374235;32;33262;-90
2023/12/23 06:59:48;;;;;;;;;;;;;;;2.61;83.45;98206.06;4376051;32;35729;-89
2023/12/23 07:02:16;;;;;;;;;;;;;;;2.59;82.91;98178.75;4369376;32;34132;-88
2023/12/23 07:04:46;;;;;;;;;;;;;;;2.49;83.43;98181.38;4356755;32;34175;-88
2023/12/23 07:07:14;;;;;;;;;;;;;;;2.61;83.43;98184.69;4368602;32;33172;-88
2023/12/23 07:09:43;;;;;;;;;;;;;;;2.63;83.45;98167.62;4375441;32;34091;-89
2023/12/23 07:12:17;;;;;;;;;;;;;;;2.75;82.39;98152.19;4370687;32;33526;-88
2023/12/23 07:14:47;;;;;;;;;;;;;;;2.75;82.33;98157.31;4370483;32;33201;-89
2023/12/23 07:17:19;;;;;;;;;;;;;;;2.88;80.94;98181.16;4370524;32;32436;-88
2023/12/23 07:20:06;;;;;;;;;;;;;;;2.89;80.71;98201.59;4370900;32;33428;-88
2023/12/23 07:22:38;;;;;;;;;;;;;;;2.90;80.05;98208.44;4374865;32;33520;-89
2023/12/23 07:25:07;;;;;;;;;;;;;;;2.78;79.96;98214.50;4372323;32;34123;-89
2023/12/23 07:27:42;;;;;;;;;;;;;;;2.71;80.77;98235.88;4369427;32;32968;-89
2023/12/23 07:30:17;;;;;;;;;;;;;;;2.71;80.66;98242.72;4369607;32;33433;-92
2023/12/23 07:32:46;;;;;;;;;;;;;;;2.79;80.26;98251.19;4369880;32;34979;-90
2023/12/23 07:35:17;;;;;;;;;;;;;;;2.63;80.89;98252.97;4374950;32;34394;-90
2023/12/23 07:37:50;;;;;;;;;;;;;;;2.75;80.24;98262.28;4366342;32;33197;-90
2023/12/23 07:40:19;;;;;;;;;;;;;;;2.66;80.58;98265.78;4369475;32;33587;-91
2023/12/23 07:42:49;;;;;;;;;;;;;;;2.61;81.26;98262.38;4369106;32;34498;-90
2023/12/23 07:45:21;;;;;;;;;;;;;;;2.53;81.27;98264.94;4375595;32;34420;-91
2023/12/23 07:47:49;;;;;;;;;;;;;;;2.55;80.93;98264.94;4369196;32;33692;-91
2023/12/23 07:50:24;;;;;;;;;;;;;;;2.69;81.16;98270.87;4372002;32;33216;-92
2023/12/23 07:52:53;;;;;;;;;;;;;;;2.73;81.38;98275.12;4364894;32;33748;-91
2023/12/23 07:55:22;;;;;;;;;;;;;;;2.68;80.89;98271.75;4369740;32;32943;-91
2023/12/23 07:57:52;;;;;;;;;;;;;;;2.99;79.60;98290.34;4370955;32;33391;-91
2023/12/23 08:00:22;;;;;;;;;;;;;;;2.68;80.19;98293.91;4368446;32;34625;-90
2023/12/23 08:02:53;;;;;;;;;;;;;;;2.68;80.91;98309.28;4372456;32;34880;-92
2023/12/23 08:05:22;;;;;;;;;;;;;;;2.71;80.99;98342.56;4369257;32;34768;-91
2023/12/23 08:07:54;;;;;;;;;;;;;;;3.09;79.53;98339.81;4376293;32;33148;-90
2023/12/23 08:10:29;;;;;;;;;;;;;;;3.05;79.78;98350.13;4372635;32;35003;-92
2023/12/23 08:12:59;;;;;;;;;;;;;;;2.88;80.25;98361.28;4362204;32;32610;-91
2023/12/23 08:15:31;;;;;;;;;;;;;;;2.96;79.42;98358.69;4372184;32;33647;-92
2023/12/23 08:17:59;;;;;;;;;;;;;;;3.05;79.14;98378.31;4370911;32;33389;-92
2023/12/23 08:20:31;;;;;;;;;;;;;;;3.05;78.69;98374.03;4377256;32;33081;-93
2023/12/23 08:23:05;;;;;;;;;;;;;;;3.06;78.99;98369.75;4371344;32;33912;-94
2023/12/23 08:26:04;;;;;;;;;;;;;;;3.08;78.87;98388.53;4358264;32;34387;-93
2023/12/23 08:28:39;;;;;;;;;;;;;;;3.06;78.75;98390.25;4372081;32;34056;-92
2023/12/23 08:31:07;;;;;;;;;;;;;;;2.97;78.63;98393.69;4356950;32;33835;-94
2023/12/23 08:33:37;;;;;;;;;;;;;;;3.15;78.36;98391.06;4346716;32;33918;-93
2023/12/23 08:36:18;;;;;;;;;;;;;;;3.18;78.22;98403.00;4361951;32;32848;-93
2023/12/23 08:38:52;;;;;;;;;;;;;;;2.94;78.84;98401.37;4370214;32;33399;-93
2023/12/23 08:41:24;;;;;;;;;;;;;;;3.53;76.99;98405.41;4366814;32;34347;-94
2023/12/23 08:43:55;;;;;;;;;;;;;;;3.53;77.09;98407.13;4357279;32;33351;-93
2023/12/23 08:46:24;;;;;;;;;;;;;;;3.65;76.23;98404.47;4376561;32;32875;-93
2023/12/23 08:48:52;;;;;;;;;;;;;;;3.75;75.59;98411.25;4370861;32;32579;-92
2023/12/23 08:51:24;;;;;;;;;;;;;;;3.67;74.60;98409.59;4372064;32;34079;-91
2023/12/23 08:53:52;;;;;;;;;;;;;;;3.68;74.43;98417.28;4374619;32;33444;-92
2023/12/23 08:56:27;;;;;;;;;;;;;;;3.54;74.62;98429.31;4354547;32;33872;-91
2023/12/23 08:58:57;;;;;;;;;;;;;;;3.38;74.58;98437.09;4374859;32;33446;-92
2023/12/23 09:01:30;;;;;;;;;;;;;;;3.44;75.68;98438.78;4370386;32;33880;-92
2023/12/23 09:03:58;;;;;;;;;;;;;;;3.46;74.70;98434.50;4360102;32;33548;-91
2023/12/23 09:06:29;;;;;;;;;;;;;;;3.53;73.41;98432.75;4369665;32;34339;-91
2023/12/23 09:08:58;;;;;;;;;;;;;;;3.31;72.59;98439.69;4373491;32;33852;-90
2023/12/23 09:11:31;;;;;;;;;;;;;;;3.24;71.54;98435.44;4375909;32;33251;-91
2023/12/23 09:14:01;;;;;;;;;;;;;;;3.21;71.92;98449.13;4370714;32;33698;-91
2023/12/23 09:16:31;;;;;;;;;;;;;;;3.15;71.67;98454.28;4371199;32;35228;-91
2023/12/23 09:19:00;;;;;;;;;;;;;;;3.22;71.80;98443.16;4378073;32;33384;-90
2023/12/23 09:21:34;;;;;;;;;;;;;;;3.36;70.80;98453.34;4374578;32;33617;-90
2023/12/23 09:24:03;;;;;;;;;;;;;;;3.32;70.39;98449.94;4370835;32;34561;-90
2023/12/23 09:26:35;;;;;;;;;;;;;;;3.23;70.32;98446.56;4370913;32;34184;-91
2023/12/23 09:29:05;;;;;;;;;;;;;;;3.35;70.41;98455.03;4373109;32;33306;-90
2023/12/23 09:31:34;;;;;;;;;;;;;;;3.39;69.85;98449.06;4367819;32;34547;-90
2023/12/23 09:34:06;;;;;;;;;;;;;;;3.33;69.22;98451.63;4376370;32;34787;-90
2023/12/23 09:36:34;;;;;;;;;;;;;;;3.68;69.77;98450.62;4369627;32;33662;-90
2023/12/23 09:39:04;;;;;;;;;;;;;;;3.66;68.54;98438.66;4370404;32;32711;-90
2023/12/23 09:41:40;;;;;;;;;;;;;;;3.82;68.25;98427.47;4360618;32;32299;-91
2023/12/23 09:44:10;;;;;;;;;;;;;;;3.80;69.26;98427.47;4375657;32;34990;-91
2023/12/23 09:46:41;;;;;;;;;;;;;;;3.99;68.66;98419.66;4369376;32;33961;-90
2023/12/23 09:49:10;;;;;;;;;;;;;;;3.90;68.62;98400.03;4370664;32;33485;-90
2023/12/23 09:51:47;;;;;;;;;;;;;;;3.98;69.06;98416.22;4373080;32;34590;-90
2023/12/23 09:54:17;;;;;;;;;;;;;;;4.05;68.64;98429.84;4370156;32;33983;-90
2023/12/23 09:56:51;;;;;;;;;;;;;;;3.84;69.63;98433.41;4375694;32;34073;-89
2023/12/23 09:59:28;;;;;;;;;;;;;;;3.83;69.78;98432.56;4373616;32;33801;-90
2023/12/23 10:01:57;;;;;;;;;;;;;;;3.86;69.74;98439.37;4371598;32;33267;-91
2023/12/23 10:04:30;;;;;;;;;;;;;;;4.03;67.91;98429.84;4371234;32;33431;-90
2023/12/23 10:06:58;;;;;;;;;;;;;;;3.91;68.34;98450.47;4366114;32;34388;-91
2023/12/23 10:09:30;;;;;;;;;;;;;;;4.01;67.60;98438.44;4371249;32;33350;-90
2023/12/23 10:11:59;;;;;;;;;;;;;;;4.02;68.30;98435.03;4365678;32;34262;-90
2023/12/23 10:14:32;;;;;;;;;;;;;;;3.93;68.61;98446.19;4369238;32;34649;-92
2023/12/23 10:17:01;;;;;;;;;;;;;;;3.84;67.72;98457.38;4370132;32;34205;-91
2023/12/23 10:19:33;;;;;;;;;;;;;;;3.75;67.67;98444.59;4375105;32;32697;-91
2023/12/23 10:22:02;;;;;;;;;;;;;;;3.72;68.10;98446.31;4357666;32;32925;-91
2023/12/23 10:24:35;;;;;;;;;;;;;;;3.47;67.79;98445.59;4356073;32;32663;-91
2023/12/23 10:27:05;;;;;;;;;;;;;;;3.45;68.92;98445.59;4369007;32;34724;-91
2023/12/23 10:29:37;;;;;;;;;;;;;;;3.62;67.70;98445.50;4369801;32;33498;-91
2023/12/23 10:32:06;;;;;;;;;;;;;;;3.54;67.46;98432.72;4374331;32;33497;-91
2023/12/23 10:34:44;;;;;;;;;;;;;;;3.79;67.74;98438.59;4373578;32;34328;-92
2023/12/23 10:37:12;;;;;;;;;;;;;;;4.02;66.61;98437.59;4369209;32;34049;-92
2023/12/23 10:40:03;;;;;;;;;;;;;;;3.84;67.07;98439.41;4353626;32;32494;-92
2023/12/23 10:42:31;;;;;;;;;;;;;;;3.84;65.98;98446.25;4373579;32;33518;-93
2023/12/23 10:45:04;;;;;;;;;;;;;;;3.80;66.15;98447.97;4375975;32;33550;-95
2023/12/23 10:47:33;;;;;;;;;;;;;;;3.75;65.79;98448.88;4356677;32;32407;-95
2023/12/23 10:50:03;;;;;;;;;;;;;;;3.77;65.74;98445.44;4356256;32;32181;-95
2023/12/23 10:52:31;;;;;;;;;;;;;;;3.96;66.08;98441.06;4357434;32;34395;-94
2023/12/23 10:55:05;;;;;;;;;;;;;;;4.05;66.36;98435.84;4373278;32;32300;-94
2023/12/23 10:57:33;;;;;;;;;;;;;;;4.14;63.51;98428.94;4361755;32;32994;-94
2023/12/23 11:00:10;;;;;;;;;;;;;;;4.11;62.76;98431.50;4354296;32;31562;-93
2023/12/23 11:02:38;;;;;;;;;;;;;;;3.55;61.48;98434.47;4356625;32;33908;-93
2023/12/23 11:05:09;;;;;;;;;;;;;;;3.48;62.39;98413.97;4369441;32;34185;-93
2023/12/23 11:07:38;;;;;;;;;;;;;;;3.24;61.75;98420.94;4374939;32;34416;-93
2023/12/23 11:10:10;;;;;;;;;;;;;;;3.25;63.16;98412.38;4367038;32;33055;-93
2023/12/23 11:12:38;;;;;;;;;;;;;;;3.38;62.00;98408.91;4359179;32;34097;-92
2023/12/23 11:15:10;;;;;;;;;;;;;;;3.08;62.85;98409.03;4361137;32;34165;-93
2023/12/23 11:17:41;;;;;;;;;;;;;;;2.88;64.97;98401.41;4375876;32;33085;-93
2023/12/23 11:20:33;;;;;;;;;;;;;;;2.72;65.52;98401.44;4375469;32;33653;-93
2023/12/23 11:23:02;;;;;;;;;;;;;;;2.75;67.26;98404.03;4359979;32;33342;-94
2023/12/23 11:25:37;;;;;;;;;;;;;;;2.68;68.21;98391.22;4355869;32;32922;-93
2023/12/23 11:28:08;;;;;;;;;;;;;;;2.58;69.49;98400.63;4359083;32;35534;-94
2023/12/23 11:30:40;;;;;;;;;;;;;;;2.48;70.72;98394.66;4375660;32;34309;-93
2023/12/23 11:33:08;;;;;;;;;;;;;;;2.19;72.98;98383.63;4375481;32;34095;-94
2023/12/23 11:35:38;;;;;;;;;;;;;;;1.91;75.21;98373.41;4359174;32;33438;-94
2023/12/23 11:38:07;;;;;;;;;;;;;;;2.12;75.39;98373.38;4368925;32;33525;-94
2023/12/23 11:40:41;;;;;;;;;;;;;;;2.13;76.35;98367.41;4355035;32;32828;-94
2023/12/23 11:43:10;;;;;;;;;;;;;;;2.00;77.74;98359.75;4367781;32;34012;-94
2023/12/23 11:45:44;;;;;;;;;;;;;;;2.11;78.28;98348.66;4367544;32;34685;-95
2023/12/23 11:48:14;;;;;;;;;;;;;;;2.41;77.66;98348.63;4353002;32;33516;-93
2023/12/23 11:50:43;;;;;;;;;;;;;;;2.28;78.36;98345.22;4361331;32;33073;-94
2023/12/23 11:53:11;;;;;;;;;;;;;;;2.32;78.17;98349.47;4365554;32;34393;-94
2023/12/23 11:55:42;;;;;;;;;;;;;;;2.25;78.93;98350.38;4364840;32;34763;-93
2023/12/23 11:58:16;;;;;;;;;;;;;;;2.38;78.64;98346.91;4363908;32;33824;-93
2023/12/23 12:00:54;;;;;;;;;;;;;;;1.99;79.74;98328.22;4367449;32;32671;-95
2023/12/23 12:03:32;;;;;;;;;;;;;;;1.91;80.75;98329.94;4368209;32;33967;-94
2023/12/23 12:06:02;;;;;;;;;;;;;;;2.11;79.98;98312.84;4368735;32;32336;-93
2023/12/23 12:08:36;;;;;;;;;;;;;;;2.07;79.71;98321.38;4372674;32;33724;-94
2023/12/23 12:11:04;;;;;;;;;;;;;;;2.15;80.09;98311.16;4365458;32;32566;-93
2023/12/23 12:13:38;;;;;;;;;;;;;;;1.93;80.68;98307.72;4371538;32;34136;-94
2023/12/23 12:16:15;;;;;;;;;;;;;;;2.04;80.40;98289.84;4352221;32;33678;-95
2023/12/23 12:18:46;;;;;;;;;;;;;;;2.32;79.78;98286.37;4371464;32;33636;-95
2023/12/23 12:21:15;;;;;;;;;;;;;;;2.34;79.81;98289.78;4356970;32;32830;-95
2023/12/23 12:23:43;;;;;;;;;;;;;;;2.27;79.77;98277.84;4347223;32;33009;-93
2023/12/23 12:26:12;;;;;;;;;;;;;;;2.39;79.03;98269.25;4347385;32;32654;-94
2023/12/23 12:28:42;;;;;;;;;;;;;;;2.45;78.62;98263.28;4355777;32;34575;-95
2023/12/23 12:31:20;;;;;;;;;;;;;;;2.67;78.37;98262.34;4356344;32;31699;-95
2023/12/23 12:33:49;;;;;;;;;;;;;;;2.79;77.01;98276.78;4354058;32;32354;-95
2023/12/23 12:36:20;;;;;;;;;;;;;;;2.71;77.53;98284.53;4351876;32;32425;-95
2023/12/23 12:38:49;;;;;;;;;;;;;;;2.72;77.53;98288.78;4366628;32;34006;-94
2023/12/23 12:41:21;;;;;;;;;;;;;;;2.67;77.95;98290.50;4368018;32;32587;-94
2023/12/23 12:43:50;;;;;;;;;;;;;;;2.98;77.00;98300.63;4374419;32;33496;-95
2023/12/23 12:46:23;;;;;;;;;;;;;;;3.13;76.73;98294.56;4360909;32;33911;-95
2023/12/23 12:48:52;;;;;;;;;;;;;;;3.25;76.05;98314.97;4366506;32;34499;-95
2023/12/23 12:51:20;;;;;;;;;;;;;;;3.35;75.86;98323.47;4365635;32;33005;-92
2023/12/23 12:53:52;;;;;;;;;;;;;;;3.36;76.01;98322.63;4370666;32;33697;-92
2023/12/23 12:56:22;;;;;;;;;;;;;;;3.26;76.03;98321.78;4367744;32;33948;-93
2023/12/23 12:58:52;;;;;;;;;;;;;;;3.53;74.75;98319.94;4368226;32;34335;-93
2023/12/23 13:01:26;;;;;;;;;;;;;;;3.60;74.63;98319.88;4372159;32;33358;-94
2023/12/23 13:03:55;;;;;;;;;;;;;;;3.30;75.47;98313.22;4370095;32;33115;-94
2023/12/23 13:06:24;;;;;;;;;;;;;;;3.48;74.65;98324.22;4374975;32;35039;-94
2023/12/23 13:08:53;;;;;;;;;;;;;;;3.63;74.66;98321.56;4369242;32;33581;-94
2023/12/23 13:11:24;;;;;;;;;;;;;;;3.74;74.65;98326.59;4367450;32;33107;-94
2023/12/23 13:13:57;;;;;;;;;;;;;;;3.75;74.34;98318.91;4370652;32;34807;-93
2023/12/23 13:16:34;;;;;;;;;;;;;;;3.82;73.86;98318.00;4360379;32;33252;-93
2023/12/23 13:19:03;;;;;;;;;;;;;;;3.89;73.82;98310.25;4365448;32;35924;-93